createdAt,value
2018-07-19T00:00:54.173Z,0
2018-07-19T00:02:02.224Z,0
2018-07-19T00:03:10.298Z,0
2018-07-19T00:04:18.365Z,0
2018-07-19T00:05:26.436Z,0
2018-07-19T00:06:34.497Z,0
2018-07-19T00:07:42.578Z,0
2018-07-19T00:08:50.839Z,0
2018-07-19T00:09:58.884Z,0
2018-07-19T00:11:06.966Z,0
2018-07-19T00:12:15.038Z,0
2018-07-19T00:13:23.108Z,0
2018-07-19T00:14:31.196Z,0
2018-07-19T00:15:39.206Z,0
2018-07-19T00:16:47.302Z,0
2018-07-19T00:17:55.635Z,0
2018-07-19T00:19:03.510Z,0
2018-07-19T00:20:11.555Z,0
2018-07-19T00:21:19.566Z,0
2018-07-19T00:22:27.644Z,0
2018-07-19T00:23:35.716Z,0
2018-07-19T00:24:44.037Z,0
2018-07-19T00:25:51.857Z,0
2018-07-19T00:26:59.914Z,0
2018-07-19T00:28:07.976Z,0
2018-07-19T00:29:16.042Z,0
2018-07-19T00:30:24.112Z,0
2018-07-19T00:31:32.180Z,0
2018-07-19T00:32:40.242Z,0
2018-07-19T00:33:48.314Z,0
2018-07-19T00:34:56.426Z,0
2018-07-19T00:36:04.536Z,0
2018-07-19T00:37:12.512Z,0
2018-07-19T00:38:20.589Z,0
2018-07-19T00:39:28.626Z,0
2018-07-19T00:40:36.712Z,0
2018-07-19T00:41:44.773Z,0
2018-07-19T00:42:52.847Z,0
2018-07-19T00:44:00.918Z,0
2018-07-19T00:45:08.945Z,0
2018-07-19T00:46:17.047Z,0
2018-07-19T00:47:25.106Z,0
2018-07-19T00:48:33.178Z,0
2018-07-19T00:49:41.246Z,0
2018-07-19T00:50:49.295Z,0
2018-07-19T00:51:57.374Z,0
2018-07-19T00:53:05.444Z,0
2018-07-19T00:54:13.513Z,0
2018-07-19T00:55:21.590Z,0
2018-07-19T00:56:29.638Z,0
2018-07-19T00:57:37.725Z,0
2018-07-19T00:58:45.782Z,0
2018-07-19T00:59:53.846Z,0
2018-07-19T01:01:02.036Z,0
2018-07-19T01:02:09.977Z,0
2018-07-19T01:03:18.064Z,0
2018-07-19T01:04:26.118Z,0
2018-07-19T01:05:34.275Z,0
2018-07-19T01:06:42.264Z,0
2018-07-19T01:07:50.323Z,0
2018-07-19T01:08:58.388Z,0
2018-07-19T01:10:06.450Z,0
2018-07-19T01:11:14.527Z,0
2018-07-19T01:12:22.580Z,0
2018-07-19T01:13:30.655Z,0
2018-07-19T01:14:38.690Z,0
2018-07-19T01:15:46.799Z,0
2018-07-19T01:16:54.855Z,0
2018-07-19T01:18:02.930Z,0
2018-07-19T01:19:10.984Z,0
2018-07-19T01:20:19.040Z,0
2018-07-19T01:21:27.128Z,0
2018-07-19T01:22:35.208Z,0
2018-07-19T01:23:43.269Z,0
2018-07-19T01:24:51.336Z,0
2018-07-19T01:25:59.376Z,0
2018-07-19T01:27:07.477Z,0
2018-07-19T01:28:15.526Z,0
2018-07-19T01:29:23.705Z,0
2018-07-19T01:30:31.718Z,0
2018-07-19T01:31:39.746Z,0
2018-07-19T01:32:47.815Z,0
2018-07-19T01:33:55.874Z,0
2018-07-19T01:35:03.949Z,0
2018-07-19T01:36:12.019Z,0
2018-07-19T01:37:20.354Z,0
2018-07-19T01:38:28.146Z,0
2018-07-19T01:39:36.219Z,0
2018-07-19T01:40:44.296Z,0
2018-07-19T01:41:52.343Z,0
2018-07-19T01:43:00.423Z,0
2018-07-19T01:44:08.485Z,0
2018-07-19T01:45:16.560Z,0
2018-07-19T01:46:24.621Z,0
2018-07-19T01:47:32.701Z,0
2018-07-19T01:48:40.758Z,0
2018-07-19T01:49:48.807Z,0
2018-07-19T01:50:56.890Z,0
2018-07-19T01:52:04.957Z,0
2018-07-19T01:53:13.032Z,0
2018-07-19T01:54:21.105Z,0
2018-07-19T01:55:29.125Z,0
2018-07-19T01:56:37.236Z,0
2018-07-19T01:57:45.284Z,0
2018-07-19T01:58:53.370Z,0
2018-07-19T02:00:01.441Z,0
2018-07-19T02:01:09.493Z,0
2018-07-19T02:02:17.570Z,0
2018-07-19T02:03:25.913Z,0
2018-07-19T02:04:33.704Z,0
2018-07-19T02:05:41.772Z,0
2018-07-19T02:06:49.847Z,0
2018-07-19T02:07:57.922Z,0
2018-07-19T02:09:05.972Z,0
2018-07-19T02:10:14.046Z,0
2018-07-19T02:11:22.105Z,0
2018-07-19T02:12:30.182Z,0
2018-07-19T02:13:38.263Z,0
2018-07-19T02:14:46.329Z,0
2018-07-19T02:15:54.433Z,0
2018-07-19T02:17:02.464Z,0
2018-07-19T02:18:10.515Z,0
2018-07-19T02:19:18.575Z,0
2018-07-19T02:20:26.645Z,0
2018-07-19T02:21:34.739Z,0
2018-07-19T02:22:42.789Z,0
2018-07-19T02:23:50.853Z,0
2018-07-19T02:24:58.885Z,0
2018-07-19T02:26:07.000Z,0
2018-07-19T02:27:15.068Z,0
2018-07-19T02:28:23.133Z,0
2018-07-19T02:29:31.188Z,0
2018-07-19T02:30:39.234Z,0
2018-07-19T02:31:47.312Z,0
2018-07-19T02:32:55.375Z,0
2018-07-19T02:34:03.449Z,0
2018-07-19T02:35:11.539Z,0
2018-07-19T02:36:19.571Z,0
2018-07-19T02:37:27.655Z,0
2018-07-19T02:38:35.921Z,0
2018-07-19T02:39:45.056Z,0
2018-07-19T02:40:52.060Z,0
2018-07-19T02:42:00.112Z,0
2018-07-19T02:43:08.177Z,0
2018-07-19T02:44:16.255Z,0
2018-07-19T02:45:24.641Z,0
2018-07-19T02:46:32.372Z,0
2018-07-19T02:47:40.434Z,0
2018-07-19T02:48:48.523Z,0
2018-07-19T02:49:56.574Z,0
2018-07-19T02:51:04.634Z,0
2018-07-19T02:52:12.707Z,0
2018-07-19T02:53:20.769Z,0
2018-07-19T02:54:28.801Z,0
2018-07-19T02:55:36.915Z,0
2018-07-19T02:56:44.971Z,0
2018-07-19T02:57:53.050Z,0
2018-07-19T02:59:01.083Z,0
2018-07-19T03:00:09.134Z,0
2018-07-19T03:01:17.369Z,0
2018-07-19T03:02:25.567Z,0
2018-07-19T03:03:33.362Z,0
2018-07-19T03:04:41.431Z,0
2018-07-19T03:05:49.478Z,0
2018-07-19T03:06:57.914Z,0
2018-07-19T03:08:05.629Z,0
2018-07-19T03:09:13.680Z,0
2018-07-19T03:10:21.755Z,0
2018-07-19T03:11:29.833Z,0
2018-07-19T03:12:37.898Z,0
2018-07-19T03:13:45.960Z,0
2018-07-19T03:14:54.032Z,0
2018-07-19T03:16:05.268Z,0
2018-07-19T03:17:10.163Z,0
2018-07-19T03:18:18.241Z,0
2018-07-19T03:19:26.281Z,0
2018-07-19T03:20:34.367Z,0
2018-07-19T03:21:42.416Z,0
2018-07-19T03:22:50.491Z,0
2018-07-19T03:23:58.636Z,0
2018-07-19T03:25:06.622Z,0
2018-07-19T03:26:14.680Z,0
2018-07-19T03:27:22.744Z,0
2018-07-19T03:28:30.909Z,0
2018-07-19T03:29:38.866Z,0
2018-07-19T03:30:46.952Z,0
2018-07-19T03:31:55.014Z,0
2018-07-19T03:33:03.089Z,0
2018-07-19T03:34:11.154Z,0
2018-07-19T03:35:19.184Z,0
2018-07-19T03:36:27.276Z,0
2018-07-19T03:37:35.347Z,5
2018-07-19T03:38:43.410Z,5
2018-07-19T03:39:51.483Z,5
2018-07-19T03:40:59.542Z,5
2018-07-19T03:42:07.659Z,5
2018-07-19T03:43:15.683Z,5
2018-07-19T03:44:23.741Z,5
2018-07-19T03:45:31.810Z,10
2018-07-19T03:46:39.876Z,10
2018-07-19T03:47:47.947Z,10
2018-07-19T03:48:56.011Z,10
2018-07-19T03:50:04.076Z,10
2018-07-19T03:51:12.144Z,10
2018-07-19T03:52:20.228Z,15
2018-07-19T03:53:28.272Z,15
2018-07-19T03:54:36.353Z,15
2018-07-19T03:55:44.410Z,15
2018-07-19T03:56:52.480Z,20
2018-07-19T03:58:00.630Z,20
2018-07-19T03:59:08.595Z,20
2018-07-19T04:00:16.673Z,20
2018-07-19T04:01:26.310Z,25
2018-07-19T04:02:34.212Z,25
2018-07-19T04:03:42.274Z,25
2018-07-19T04:04:50.348Z,30
2018-07-19T04:05:58.401Z,30
2018-07-19T04:07:06.481Z,30
2018-07-19T04:08:14.546Z,30
2018-07-19T04:09:22.602Z,35
2018-07-19T04:10:30.688Z,35
2018-07-19T04:11:38.714Z,35
2018-07-19T04:12:46.812Z,40
2018-07-19T04:13:54.871Z,40
2018-07-19T04:15:02.952Z,40
2018-07-19T04:16:11.005Z,40
2018-07-19T04:17:19.056Z,45
2018-07-19T04:18:27.142Z,45
2018-07-19T04:19:35.213Z,50
2018-07-19T04:20:43.274Z,50
2018-07-19T04:21:51.338Z,55
2018-07-19T04:22:59.387Z,60
2018-07-19T04:24:07.472Z,60
2018-07-19T04:25:15.558Z,65
2018-07-19T04:26:23.604Z,65
2018-07-19T04:27:31.920Z,65
2018-07-19T04:28:39.733Z,70
2018-07-19T04:29:47.800Z,70
2018-07-19T04:30:55.872Z,70
2018-07-19T04:32:03.942Z,70
2018-07-19T04:33:12.017Z,75
2018-07-19T04:34:20.077Z,75
2018-07-19T04:35:28.341Z,80
2018-07-19T04:36:36.409Z,80
2018-07-19T04:37:44.844Z,85
2018-07-19T04:38:52.524Z,85
2018-07-19T04:40:00.604Z,90
2018-07-19T04:41:08.648Z,90
2018-07-19T04:42:16.751Z,95
2018-07-19T04:43:24.814Z,95
2018-07-19T04:44:32.877Z,95
2018-07-19T04:45:40.945Z,100
2018-07-19T04:46:48.983Z,100
2018-07-19T04:47:57.072Z,100
2018-07-19T04:49:05.134Z,105
2018-07-19T04:50:13.223Z,105
2018-07-19T04:51:21.268Z,110
2018-07-19T04:52:29.313Z,110
2018-07-19T04:53:37.402Z,110
2018-07-19T04:54:45.820Z,115
2018-07-19T04:55:53.542Z,115
2018-07-19T04:57:01.617Z,115
2018-07-19T04:58:09.659Z,120
2018-07-19T04:59:20.766Z,120
2018-07-19T05:00:28.223Z,125
2018-07-19T05:01:36.274Z,125
2018-07-19T05:02:44.347Z,125
2018-07-19T05:03:52.425Z,125
2018-07-19T05:05:00.509Z,130
2018-07-19T05:06:08.534Z,130
2018-07-19T05:07:17.371Z,150
2018-07-19T05:08:24.715Z,220
2018-07-19T05:09:32.756Z,280
2018-07-19T05:10:40.821Z,310
2018-07-19T05:11:49.697Z,275
2018-07-19T05:14:12.328Z,155
2018-07-19T05:15:19.951Z,150
2018-07-19T05:16:28.021Z,145
2018-07-19T05:17:36.073Z,140
2018-07-19T05:18:44.152Z,145
2018-07-19T05:19:52.225Z,145
2018-07-19T05:21:00.574Z,145
2018-07-19T05:22:08.375Z,145
2018-07-19T05:23:16.480Z,145
2018-07-19T05:24:24.504Z,150
2018-07-19T05:25:32.628Z,155
2018-07-19T05:26:40.638Z,155
2018-07-19T05:27:48.668Z,155
2018-07-19T05:28:56.871Z,155
2018-07-19T05:30:04.843Z,160
2018-07-19T05:31:12.900Z,165
2018-07-19T05:32:20.960Z,165
2018-07-19T05:33:29.013Z,165
2018-07-19T05:34:37.147Z,170
2018-07-19T05:35:45.207Z,170
2018-07-19T05:36:53.248Z,175
2018-07-19T05:38:01.602Z,175
2018-07-19T05:39:09.327Z,180
2018-07-19T05:40:17.433Z,180
2018-07-19T05:41:25.494Z,185
2018-07-19T05:42:33.567Z,190
2018-07-19T05:43:41.629Z,190
2018-07-19T05:44:49.697Z,195
2018-07-19T05:45:57.783Z,195
2018-07-19T05:47:05.856Z,200
2018-07-19T05:48:13.904Z,205
2018-07-19T05:49:21.974Z,205
2018-07-19T05:50:30.043Z,205
2018-07-19T05:51:38.123Z,205
2018-07-19T05:52:46.226Z,210
2018-07-19T05:53:54.251Z,210
2018-07-19T05:55:02.317Z,210
2018-07-19T05:56:10.430Z,210
2018-07-19T05:57:19.121Z,210
2018-07-19T05:58:27.133Z,205
2018-07-19T05:59:54.415Z,205
2018-07-19T06:00:43.270Z,205
2018-07-19T06:01:51.325Z,210
2018-07-19T06:02:59.371Z,210
2018-07-19T06:04:07.474Z,210
2018-07-19T06:05:15.534Z,215
2018-07-19T06:06:23.600Z,215
2018-07-19T06:07:31.663Z,220
2018-07-19T06:08:39.737Z,220
2018-07-19T06:09:48.081Z,225
2018-07-19T06:10:55.873Z,225
2018-07-19T06:12:03.937Z,230
2018-07-19T06:13:12.007Z,230
2018-07-19T06:14:20.078Z,230
2018-07-19T06:15:28.151Z,235
2018-07-19T06:16:36.214Z,235
2018-07-19T06:17:44.294Z,240
2018-07-19T06:18:52.361Z,240
2018-07-19T06:20:00.427Z,245
2018-07-19T06:21:08.497Z,245
2018-07-19T06:22:16.603Z,250
2018-07-19T06:23:24.624Z,250
2018-07-19T06:24:32.693Z,250
2018-07-19T06:25:40.778Z,250
2018-07-19T06:26:48.902Z,255
2018-07-19T06:27:56.912Z,255
2018-07-19T06:29:07.419Z,255
2018-07-19T06:30:13.382Z,260
2018-07-19T06:31:21.134Z,260
2018-07-19T06:32:29.153Z,260
2018-07-19T06:33:37.243Z,260
2018-07-19T06:34:45.326Z,265
2018-07-19T06:35:53.390Z,265
2018-07-19T06:37:01.456Z,265
2018-07-19T06:38:09.515Z,265
2018-07-19T06:39:21.021Z,270
2018-07-19T06:40:29.065Z,270
2018-07-19T06:41:37.151Z,270
2018-07-19T06:42:45.235Z,270
2018-07-19T06:43:53.299Z,275
2018-07-19T06:45:01.373Z,275
2018-07-19T06:46:09.421Z,280
2018-07-19T06:47:17.528Z,280
2018-07-19T06:48:25.581Z,285
2018-07-19T06:49:33.829Z,285
2018-07-19T06:50:41.722Z,290
2018-07-19T06:51:49.787Z,290
2018-07-19T06:52:57.861Z,295
2018-07-19T06:54:05.935Z,300
2018-07-19T06:55:14.003Z,300
2018-07-19T06:56:22.073Z,305
2018-07-19T06:57:30.193Z,305
2018-07-19T06:58:38.208Z,310
2018-07-19T06:59:46.277Z,315
2018-07-19T07:00:54.348Z,320
2018-07-19T07:02:02.418Z,325
2018-07-19T07:03:10.486Z,330
2018-07-19T07:04:18.537Z,330
2018-07-19T07:05:26.639Z,335
2018-07-19T07:06:34.696Z,335
2018-07-19T07:07:42.772Z,340
2018-07-19T07:08:50.857Z,345
2018-07-19T07:09:58.878Z,350
2018-07-19T07:11:06.983Z,355
2018-07-19T07:12:15.046Z,370
2018-07-19T07:13:23.116Z,370
2018-07-19T07:14:31.191Z,385
2018-07-19T07:15:39.236Z,420
2018-07-19T07:16:47.326Z,500
2018-07-19T07:17:55.398Z,665
2018-07-19T07:19:03.475Z,685
2018-07-19T07:20:11.541Z,640
2018-07-19T07:21:19.723Z,550
2018-07-19T07:22:27.681Z,550
2018-07-19T07:23:35.753Z,835
2018-07-19T07:24:43.833Z,875
2018-07-19T07:25:51.907Z,935
2018-07-19T07:26:59.967Z,1325
2018-07-19T07:28:08.061Z,1200
2018-07-19T07:29:16.401Z,935
2018-07-19T07:30:26.804Z,660
2018-07-19T07:31:34.893Z,525
2018-07-19T07:32:42.956Z,610
2018-07-19T07:33:51.042Z,1275
2018-07-19T07:34:59.075Z,1670
2018-07-19T07:36:07.177Z,1800
2018-07-19T07:37:15.553Z,1705
2018-07-19T07:38:23.337Z,1535
2018-07-19T07:39:31.404Z,1775
2018-07-19T07:40:39.671Z,1955
2018-07-19T07:41:47.746Z,1870
2018-07-19T07:44:03.956Z,1765
2018-07-19T07:45:14.961Z,1725
2018-07-19T07:46:22.874Z,1960
2018-07-19T07:47:32.360Z,1960
2018-07-19T07:48:40.425Z,1960
2018-07-19T07:49:48.692Z,2170
2018-07-19T07:50:56.810Z,2115
2018-07-19T07:52:04.870Z,1880
2018-07-19T07:53:12.960Z,1650
2018-07-19T07:54:21.044Z,1825
2018-07-19T07:55:29.082Z,1970
2018-07-19T07:56:39.629Z,2060
2018-07-19T07:57:50.348Z,2130
2018-07-19T07:59:06.260Z,2160
2018-07-19T08:00:14.329Z,2170
2018-07-19T08:01:22.421Z,2205
2018-07-19T08:02:30.509Z,2265
2018-07-19T08:03:38.574Z,2210
2018-07-19T08:04:46.658Z,2080
2018-07-19T08:05:54.743Z,1885
2018-07-19T08:07:02.817Z,1880
2018-07-19T08:08:10.895Z,2360
2018-07-19T08:09:18.954Z,2475
2018-07-19T08:10:27.066Z,2090
2018-07-19T08:11:35.150Z,2210
2018-07-19T08:12:43.234Z,2325
2018-07-19T08:13:51.312Z,2170
2018-07-19T08:14:59.387Z,2135
2018-07-19T08:16:07.482Z,2220
2018-07-19T08:17:15.565Z,2305
2018-07-19T08:18:23.632Z,2360
2018-07-19T08:19:31.715Z,2215
2018-07-19T08:20:39.812Z,2195
2018-07-19T08:21:47.941Z,2315
2018-07-19T08:22:55.972Z,2110
2018-07-19T08:24:04.055Z,2095
2018-07-19T08:25:12.137Z,2045
2018-07-19T08:26:20.482Z,2130
2018-07-19T08:27:28.300Z,2260
2018-07-19T08:28:36.389Z,2315
2018-07-19T08:29:44.475Z,2345
2018-07-19T08:30:52.651Z,2290
2018-07-19T08:32:00.630Z,2395
2018-07-19T08:33:08.689Z,2415
2018-07-19T08:34:16.797Z,2360
2018-07-19T08:35:25.152Z,2245
2018-07-19T08:36:32.968Z,2275
2018-07-19T08:37:41.048Z,2260
2018-07-19T08:38:49.110Z,2200
2018-07-19T08:39:57.221Z,2265
2018-07-19T08:41:05.298Z,2400
2018-07-19T08:42:13.483Z,2380
2018-07-19T08:43:21.468Z,2200
2018-07-19T08:44:29.555Z,2285
2018-07-19T08:45:37.646Z,2505
2018-07-19T08:46:45.733Z,2585
2018-07-19T08:47:53.791Z,2535
2018-07-19T08:49:01.896Z,2560
2018-07-19T08:50:09.987Z,2510
2018-07-19T08:51:18.065Z,2480
2018-07-19T08:52:26.136Z,2505
2018-07-19T08:53:34.230Z,2470
2018-07-19T08:54:42.312Z,2485
2018-07-19T08:55:50.705Z,2420
2018-07-19T08:56:58.482Z,2280
2018-07-19T08:58:06.568Z,2215
2018-07-19T08:59:14.651Z,2355
2018-07-19T09:00:22.741Z,2425
2018-07-19T09:01:30.815Z,2470
2018-07-19T09:02:38.899Z,2625
2018-07-19T09:03:46.977Z,2345
2018-07-19T09:04:55.074Z,2465
2018-07-19T09:06:03.161Z,2450
2018-07-19T09:07:11.255Z,2425
2018-07-19T09:08:19.294Z,2435
2018-07-19T09:09:27.407Z,2460
2018-07-19T09:10:35.493Z,2535
2018-07-19T09:11:43.582Z,2600
2018-07-19T09:12:51.698Z,2570
2018-07-19T09:13:59.758Z,2570
2018-07-19T09:15:08.083Z,2515
2018-07-19T09:16:15.915Z,2375
2018-07-19T09:17:23.989Z,2470
2018-07-19T09:18:32.174Z,2605
2018-07-19T09:19:40.180Z,2600
2018-07-19T09:20:48.248Z,2745
2018-07-19T09:21:56.332Z,1725
2018-07-19T09:23:04.409Z,505
2018-07-19T09:24:12.499Z,390
2018-07-19T09:25:20.579Z,365
2018-07-19T09:26:28.643Z,350
2018-07-19T09:27:36.737Z,350
2018-07-19T09:28:44.827Z,345
2018-07-19T09:29:52.931Z,350
2018-07-19T09:31:00.994Z,350
2018-07-19T09:32:09.042Z,350
2018-07-19T09:33:17.397Z,350
2018-07-19T09:34:25.442Z,350
2018-07-19T09:35:33.522Z,345
2018-07-19T09:36:41.602Z,345
2018-07-19T09:37:49.672Z,345
2018-07-19T09:38:57.786Z,345
2018-07-19T09:40:05.856Z,340
2018-07-19T09:41:13.919Z,345
2018-07-19T09:42:21.997Z,340
2018-07-19T09:43:30.128Z,335
2018-07-19T09:44:38.159Z,335
2018-07-19T09:45:46.284Z,335
2018-07-19T09:46:54.632Z,335
2018-07-19T09:48:02.601Z,335
2018-07-19T09:49:10.675Z,335
2018-07-19T09:50:18.722Z,335
2018-07-19T09:51:26.837Z,340
2018-07-19T09:52:34.913Z,335
2018-07-19T09:53:42.981Z,345
2018-07-19T09:54:51.078Z,340
2018-07-19T09:55:59.140Z,345
2018-07-19T09:57:07.236Z,340
2018-07-19T09:58:15.288Z,335
2018-07-19T09:59:23.638Z,335
2018-07-19T10:00:31.450Z,330
2018-07-19T10:01:40.130Z,330
2018-07-19T10:02:47.867Z,325
2018-07-19T10:03:55.682Z,325
2018-07-19T10:05:03.766Z,325
2018-07-19T10:06:11.844Z,325
2018-07-19T10:07:19.906Z,325
2018-07-19T10:08:27.981Z,330
2018-07-19T10:09:36.059Z,330
2018-07-19T10:10:44.142Z,335
2018-07-19T10:11:52.214Z,330
2018-07-19T10:13:01.707Z,330
2018-07-19T10:14:08.362Z,325
2018-07-19T10:15:16.455Z,325
2018-07-19T10:16:24.525Z,325
2018-07-19T10:17:32.581Z,330
2018-07-19T10:18:40.664Z,330
2018-07-19T10:19:48.745Z,330
2018-07-19T10:20:56.813Z,330
2018-07-19T10:22:04.900Z,345
2018-07-19T10:23:12.977Z,360
2018-07-19T10:24:21.145Z,375
2018-07-19T10:25:29.128Z,385
2018-07-19T10:26:37.222Z,385
2018-07-19T10:27:45.261Z,370
2018-07-19T10:28:53.340Z,355
2018-07-19T10:30:01.422Z,355
2018-07-19T10:31:09.460Z,355
2018-07-19T10:32:17.606Z,355
2018-07-19T10:33:25.648Z,350
2018-07-19T10:34:33.716Z,340
2018-07-19T10:35:41.788Z,335
2018-07-19T10:36:49.875Z,340
2018-07-19T10:37:57.949Z,340
2018-07-19T10:39:06.017Z,340
2018-07-19T10:40:14.084Z,330
2018-07-19T10:41:22.181Z,325
2018-07-19T10:42:30.239Z,335
2018-07-19T10:43:38.364Z,345
2018-07-19T10:44:46.387Z,350
2018-07-19T10:45:54.467Z,350
2018-07-19T10:47:02.551Z,345
2018-07-19T10:48:10.659Z,335
2018-07-19T10:49:18.665Z,325
2018-07-19T10:50:26.774Z,320
2018-07-19T10:51:34.846Z,320
2018-07-19T10:52:42.917Z,325
2018-07-19T10:53:50.986Z,325
2018-07-19T10:54:59.041Z,315
2018-07-19T10:56:07.147Z,315
2018-07-19T10:57:15.220Z,315
2018-07-19T10:58:23.293Z,325
2018-07-19T10:59:31.373Z,325
2018-07-19T11:00:39.423Z,325
2018-07-19T16:59:13.271Z,190
2018-07-19T17:00:21.897Z,195
2018-07-19T17:01:29.414Z,195
2018-07-19T17:02:37.737Z,190
2018-07-19T17:03:46.027Z,180
2018-07-19T17:04:54.093Z,175
2018-07-19T17:06:02.945Z,165
2018-07-19T17:07:10.875Z,160
2018-07-19T17:08:18.248Z,155
2018-07-19T17:09:26.352Z,160
2018-07-19T17:10:34.358Z,160
2018-07-19T17:11:42.859Z,155
2018-07-19T17:12:50.668Z,150
2018-07-19T17:13:58.542Z,145
2018-07-19T17:15:06.980Z,140
2018-07-19T17:16:14.815Z,135
2018-07-19T17:17:23.351Z,135
2018-07-19T17:18:30.914Z,130
2018-07-19T17:19:38.974Z,125
2018-07-19T17:20:47.064Z,120
2018-07-19T17:21:55.202Z,120
2018-07-19T17:23:03.193Z,125
2018-07-19T17:24:11.261Z,130
2018-07-19T17:25:19.344Z,130
2018-07-19T17:26:27.449Z,140
2018-07-19T17:27:35.464Z,140
2018-07-19T17:28:43.561Z,145
2018-07-19T17:29:51.633Z,145
2018-07-19T17:30:59.707Z,140
2018-07-19T17:32:07.983Z,130
2018-07-19T17:33:16.043Z,125
2018-07-19T17:34:39.467Z,120
2018-07-19T17:35:32.200Z,115
2018-07-19T17:36:40.359Z,115
2018-07-19T17:37:48.342Z,115
2018-07-19T17:38:56.434Z,125
2018-07-19T17:40:04.493Z,135
2018-07-19T17:41:12.556Z,145
2018-07-19T17:42:20.664Z,155
2018-07-19T17:43:28.759Z,165
2018-07-19T17:44:36.786Z,165
2018-07-19T17:45:45.845Z,170
2018-07-19T17:46:52.928Z,175
2018-07-19T17:48:01.001Z,180
2018-07-19T17:49:09.409Z,180
2018-07-19T17:50:17.138Z,180
2018-07-19T17:51:25.178Z,180
2018-07-19T17:52:33.379Z,175
2018-07-19T17:53:41.557Z,170
2018-07-19T17:54:49.639Z,165
2018-07-19T17:55:58.732Z,160
2018-07-19T17:57:05.977Z,150
2018-07-19T17:58:14.065Z,145
2018-07-19T17:59:22.180Z,140
2018-07-19T18:00:30.225Z,145
2018-07-19T18:01:38.291Z,145
2018-07-19T18:02:46.368Z,150
2018-07-19T18:03:54.434Z,150
2018-07-19T18:05:02.507Z,145
2018-07-19T18:06:10.630Z,135
2018-07-19T18:07:19.214Z,130
2018-07-19T18:08:26.928Z,120
2018-07-19T18:09:34.991Z,115
2018-07-19T18:10:43.085Z,110
2018-07-19T18:11:51.142Z,105
2018-07-19T18:12:59.218Z,105
2018-07-19T18:14:07.545Z,105
2018-07-19T18:15:15.342Z,105
2018-07-19T18:16:23.436Z,105
2018-07-19T18:17:31.502Z,100
2018-07-19T18:18:39.574Z,100
2018-07-19T18:19:47.944Z,100
2018-07-19T18:20:55.700Z,90
2018-07-19T18:22:03.796Z,90
2018-07-19T18:23:11.910Z,85
2018-07-19T18:24:21.057Z,80
2018-07-19T18:25:28.033Z,75
2018-07-19T18:26:36.079Z,75
2018-07-19T18:27:44.195Z,70
2018-07-19T18:28:52.226Z,70
2018-07-19T18:30:00.564Z,65
2018-07-19T18:31:08.575Z,60
2018-07-19T18:32:16.637Z,55
2018-07-19T18:33:25.754Z,55
2018-07-19T18:34:32.787Z,50
2018-07-19T18:35:40.862Z,45
2018-07-19T18:36:48.938Z,45
2018-07-19T18:37:57.223Z,45
2018-07-19T18:39:06.352Z,40
2018-07-19T18:40:13.358Z,40
2018-07-19T18:41:21.420Z,40
2018-07-19T18:42:29.502Z,40
2018-07-19T18:43:37.611Z,40
2018-07-19T18:44:46.042Z,40
2018-07-19T18:45:57.263Z,40
2018-07-19T18:47:02.191Z,40
2018-07-19T18:48:10.264Z,35
2018-07-19T18:49:18.390Z,30
2018-07-19T18:50:26.611Z,30
2018-07-19T18:51:34.484Z,25
2018-07-19T18:52:43.828Z,20
2018-07-19T18:53:51.825Z,20
2018-07-19T18:54:59.907Z,15
2018-07-19T18:56:07.995Z,15
2018-07-19T18:57:16.285Z,10
2018-07-19T18:58:24.318Z,10
2018-07-19T18:59:32.402Z,10
2018-07-19T19:00:40.476Z,10
2018-07-19T19:01:48.541Z,5
2018-07-19T19:02:56.612Z,5
2018-07-19T19:04:04.675Z,5
2018-07-19T19:05:12.753Z,5
2018-07-19T19:06:20.817Z,5
2018-07-19T19:07:28.894Z,5
2018-07-19T19:08:41.273Z,5
2018-07-19T19:09:45.518Z,0
2018-07-19T19:10:53.110Z,0
2018-07-19T19:12:02.166Z,0
2018-07-19T19:13:12.547Z,0
2018-07-19T19:14:24.846Z,0
2018-07-19T19:15:28.910Z,0
2018-07-19T19:16:36.661Z,0
2018-07-19T19:17:44.737Z,0
2018-07-19T19:18:52.818Z,0
2018-07-19T19:20:00.859Z,0
2018-07-19T19:21:09.324Z,0
2018-07-19T19:22:17.044Z,0
2018-07-19T19:23:25.081Z,0
2018-07-19T19:24:33.160Z,0
2018-07-19T19:25:41.235Z,0
2018-07-19T19:26:49.317Z,0
2018-07-19T19:27:57.393Z,0
2018-07-19T19:29:05.416Z,0
2018-07-19T19:30:13.511Z,0
2018-07-19T19:31:21.581Z,0
2018-07-19T19:32:29.804Z,0
2018-07-19T19:33:38.084Z,0
2018-07-19T19:34:45.770Z,0
2018-07-19T19:35:53.872Z,0
2018-07-19T19:37:01.999Z,0
2018-07-19T19:38:10.034Z,0
2018-07-19T19:39:18.090Z,0
2018-07-19T19:40:26.151Z,0
2018-07-19T19:41:34.215Z,0
2018-07-19T19:42:42.288Z,0
2018-07-19T19:43:50.372Z,0
2018-07-19T19:44:58.470Z,0
2018-07-19T19:46:06.517Z,0
2018-07-19T19:47:16.370Z,0
2018-07-19T19:48:22.648Z,0
2018-07-19T19:49:30.705Z,0
2018-07-19T19:50:38.781Z,0
2018-07-19T19:51:46.860Z,0
2018-07-19T19:52:54.914Z,0
2018-07-19T19:54:02.991Z,0
2018-07-19T19:55:11.130Z,0
2018-07-19T19:56:19.133Z,0
2018-07-19T19:57:27.322Z,0
2018-07-19T19:58:35.263Z,0
2018-07-19T19:59:43.825Z,0
2018-07-19T20:00:51.560Z,0
2018-07-19T20:01:59.476Z,0
2018-07-19T20:03:08.513Z,0
2018-07-19T20:04:17.269Z,0
2018-07-19T20:05:24.373Z,0
2018-07-19T20:06:32.532Z,0
2018-07-19T20:07:40.808Z,0
2018-07-19T20:08:48.476Z,0
2018-07-19T20:09:56.537Z,0
2018-07-19T20:11:04.247Z,0
2018-07-19T20:12:12.877Z,0
2018-07-19T20:13:20.769Z,0
2018-07-19T20:14:29.698Z,0
2018-07-19T20:15:37.013Z,0
2018-07-19T20:16:44.797Z,0
2018-07-19T20:17:53.029Z,0
2018-07-19T20:19:00.949Z,0
2018-07-19T20:20:09.448Z,0
2018-07-19T20:21:18.288Z,0
2018-07-19T20:22:25.636Z,0
2018-07-19T20:23:33.316Z,0
2018-07-19T20:24:41.280Z,0
2018-07-19T20:25:49.360Z,0
2018-07-19T20:26:57.884Z,0
2018-07-19T20:28:05.857Z,0
2018-07-19T20:29:14.396Z,0
2018-07-19T20:30:22.305Z,0
2018-07-19T20:31:31.049Z,0
2018-07-19T20:32:38.403Z,0
2018-07-19T20:33:46.058Z,0
2018-07-19T20:34:54.440Z,0
2018-07-19T20:36:02.437Z,0
2018-07-19T20:37:12.030Z,0
2018-07-19T20:38:18.741Z,0
2018-07-19T20:39:26.783Z,0
2018-07-19T20:40:34.956Z,0
2018-07-19T20:41:42.527Z,0
2018-07-19T20:42:51.992Z,0
2018-07-19T20:43:58.843Z,0
2018-07-19T20:45:06.942Z,0
2018-07-19T20:46:15.653Z,0
2018-07-19T20:47:23.245Z,0
2018-07-19T20:48:31.531Z,0
2018-07-19T20:49:39.026Z,0
2018-07-19T20:50:47.389Z,0
2018-07-19T20:51:55.726Z,0
2018-07-19T20:53:03.406Z,0
2018-07-19T20:54:11.604Z,0
2018-07-19T20:55:19.371Z,0
2018-07-19T20:56:28.496Z,0
2018-07-19T20:57:35.630Z,0
2018-07-19T20:58:43.573Z,0
2018-07-19T20:59:51.651Z,0
2018-07-19T21:00:59.877Z,0
2018-07-19T21:02:08.984Z,0
2018-07-19T21:03:16.456Z,0
2018-07-19T21:04:24.085Z,0
2018-07-19T21:05:32.086Z,0
2018-07-19T21:06:40.205Z,0
2018-07-19T21:07:48.497Z,0
2018-07-19T21:08:56.442Z,0
2018-07-19T21:10:04.343Z,0
2018-07-19T21:11:12.335Z,0
2018-07-19T21:12:20.460Z,0
2018-07-19T21:13:28.615Z,0
2018-07-19T21:14:37.100Z,0
2018-07-19T21:15:44.888Z,0
2018-07-19T21:16:52.841Z,0
2018-07-19T21:18:01.303Z,0
2018-07-19T21:19:08.825Z,0
2018-07-19T21:20:17.234Z,0
2018-07-19T21:21:25.052Z,0
2018-07-19T21:22:33.186Z,0
2018-07-19T21:23:41.088Z,0
2018-07-19T21:24:49.424Z,0
2018-07-19T21:25:57.603Z,0
2018-07-19T21:27:05.835Z,0
2018-07-19T21:28:13.686Z,0
2018-07-19T21:29:21.664Z,0
2018-07-19T21:30:29.500Z,0
2018-07-19T21:31:37.565Z,0
2018-07-19T21:32:46.098Z,0
2018-07-19T21:33:53.917Z,0
2018-07-19T21:35:02.045Z,0
2018-07-19T21:36:10.054Z,0
2018-07-19T21:37:19.554Z,0
2018-07-19T21:38:26.195Z,0
2018-07-19T21:39:34.278Z,0
2018-07-19T21:40:42.333Z,0
2018-07-19T21:41:50.396Z,0
2018-07-19T21:42:58.458Z,0
2018-07-19T21:44:06.841Z,0
2018-07-19T21:45:14.591Z,0
2018-07-19T21:46:23.022Z,0
2018-07-19T21:47:30.736Z,0
2018-07-19T21:48:38.801Z,0
2018-07-19T21:49:46.873Z,0
2018-07-19T21:50:55.199Z,0
2018-07-19T21:52:03.325Z,0
2018-07-19T21:53:11.093Z,0
2018-07-19T21:54:19.161Z,0
2018-07-19T21:55:27.217Z,0
2018-07-19T21:56:35.258Z,0
2018-07-19T21:57:43.357Z,0
2018-07-19T21:58:51.424Z,0
2018-07-19T21:59:59.816Z,0
2018-07-19T22:01:07.563Z,0
2018-07-19T22:02:15.603Z,0
2018-07-19T22:03:23.702Z,0
2018-07-19T22:04:31.778Z,0
2018-07-19T22:05:40.045Z,0